createdAt,value
2022-09-29T14:46:29.079Z,0.90
2022-09-29T14:51:35.425Z,1.00
2022-09-29T14:56:40.212Z,0.90
2022-09-29T15:01:57.185Z,0.77
2022-09-29T15:07:03.889Z,1.10
2022-09-29T15:12:16.036Z,1.00
2022-09-29T15:17:33.042Z,1.10
2022-09-29T15:22:35.028Z,1.23
2022-09-29T15:27:38.627Z,1.00
2022-09-29T15:32:40.565Z,1.25
2022-09-29T15:37:45.310Z,1.00
2022-09-29T15:42:47.371Z,1.00
2022-09-29T15:47:49.223Z,1.05
2022-09-29T15:52:51.439Z,1.02
2022-09-29T15:57:53.259Z,0.93
2022-09-29T16:03:04.444Z,0.90
2022-09-29T16:08:07.812Z,0.90
2022-09-29T16:13:17.756Z,1.10
2022-09-29T16:18:29.326Z,1.20
2022-09-29T16:23:35.699Z,1.00
2022-09-29T16:28:39.146Z,0.95
2022-09-29T16:33:44.304Z,1.05
2022-09-29T16:38:46.697Z,1.40
2022-09-29T16:43:59.230Z,0.90
2022-09-29T16:49:03.802Z,1.30
2022-09-29T16:54:05.743Z,1.58
2022-09-29T16:59:15.745Z,1.80
2022-09-29T17:04:17.622Z,1.85
2022-09-29T17:09:20.492Z,1.75
2022-09-29T17:14:22.585Z,2.80
2022-09-29T17:19:24.486Z,2.05
2022-09-29T17:24:26.383Z,2.30
2022-09-29T17:29:28.231Z,2.85
2022-09-29T17:34:30.080Z,3.60
2022-09-29T17:39:31.877Z,3.00
2022-09-29T17:44:33.777Z,3.13
2022-09-29T17:49:35.608Z,4.22
2022-09-29T17:54:37.470Z,3.35
2022-09-29T17:59:39.265Z,3.10
2022-09-29T18:04:41.116Z,3.03
